Time;durP1;ratioP1;P1;durP2;ratioP2;P2;SDS_P1;SDS_P2;PMS_P1;PMS_P2;Temp;Humidity;BMP_temperature;BMP_pressure;BME280_temperature;BME280_humidity;BME280_pressure;Samples;Min_cycle;Max_cycle;Signal;HPM_P1;HPM_P2
2022/07/08 00:01:44;;;;;;;5.87;1.90;;;19.70;71.10;;;20.20;47.58;99678.97;4982253;28;123041;-87
2022/07/08 00:04:11;;;;;;;2.50;1.50;;;19.80;71.20;;;20.18;47.60;99680.50;4969088;28;119240;-87
2022/07/08 00:06:37;;;;;;;6.23;2.53;;;19.70;71.00;;;20.14;47.82;99682.38;4974794;28;118811;-87
2022/07/08 00:09:04;;;;;;;8.03;2.00;;;19.70;70.90;;;20.09;47.62;99686.22;4978599;28;124150;-90
2022/07/08 00:11:31;;;;;;;1.83;1.33;;;19.70;70.90;;;20.06;47.56;99692.56;4983449;28;124297;-88
2022/07/08 00:13:58;;;;;;;3.03;1.70;;;19.60;70.90;;;20.04;47.79;99690.13;4972908;28;120696;-87
2022/07/08 00:16:24;;;;;;;4.53;1.60;;;19.60;71.00;;;20.02;47.67;99700.88;5000447;28;119780;-87
2022/07/08 00:18:51;;;;;;;4.50;1.50;;;19.60;71.00;;;20.02;47.82;99705.69;4980258;28;124045;-87
2022/07/08 00:21:17;;;;;;;6.60;1.90;;;19.60;71.00;;;19.99;47.71;99707.19;4974978;28;123010;-88
2022/07/08 00:23:44;;;;;;;6.23;2.33;;;19.50;70.70;;;19.95;47.44;99711.06;4980064;28;119540;-87
2022/07/08 00:26:10;;;;;;;9.30;2.33;;;19.50;70.30;;;19.91;46.69;99710.09;4979562;28;119163;-90
2022/07/08 00:28:37;;;;;;;9.63;2.07;;;19.50;69.40;;;19.84;46.22;99705.91;4979751;28;124076;-88
2022/07/08 00:31:04;;;;;;;6.10;2.20;;;19.50;68.50;;;19.75;45.69;99719.25;4985546;28;123757;-86
2022/07/08 00:33:30;;;;;;;4.60;1.90;;;19.40;67.60;;;19.67;45.45;99705.38;4979100;28;119360;-86
2022/07/08 00:35:57;;;;;;;6.80;1.90;;;19.30;67.00;;;19.62;45.51;99712.00;4981587;28;118940;-87
2022/07/08 00:38:23;;;;;;;3.73;1.80;;;19.30;67.30;;;19.60;45.35;99712.34;4996689;28;124012;-87
2022/07/08 00:40:50;;;;;;;6.77;2.03;;;19.30;67.30;;;19.64;45.50;99718.88;4976012;28;123874;-87
2022/07/08 00:43:27;;;;;;;3.50;1.70;;;19.20;67.30;;;19.67;45.59;99725.81;4972897;28;119252;-87
2022/07/08 00:45:53;;;;;;;6.37;1.90;;;19.30;67.30;;;19.68;45.22;99723.81;4973075;28;119781;-87
2022/07/08 00:48:20;;;;;;;3.53;1.67;;;19.30;67.10;;;19.67;45.44;99723.00;4980937;28;124407;-87
2022/07/08 00:50:47;;;;;;;3.70;1.87;;;19.20;66.90;;;19.65;45.39;99720.50;4980668;28;124280;-90
2022/07/08 00:53:14;;;;;;;6.70;2.10;;;19.20;66.80;;;19.60;45.18;99733.94;4983029;28;119265;-89
2022/07/08 00:55:40;;;;;;;4.93;2.33;;;19.20;66.70;;;19.58;45.37;99722.25;4967834;28;119012;-89
2022/07/08 00:58:07;;;;;;;3.00;1.83;;;19.20;66.80;;;19.55;45.39;99726.56;4973848;28;123974;-90
2022/07/08 01:00:34;;;;;;;3.47;1.77;;;19.20;66.80;;;19.54;45.54;99740.97;4984506;28;123770;-89
2022/07/08 01:03:01;;;;;;;10.63;2.53;;;19.20;66.90;;;19.51;45.62;99736.88;4983214;28;119680;-90
2022/07/08 01:05:28;;;;;;;7.40;2.10;;;19.20;67.10;;;19.48;45.82;99740.38;4982865;28;119078;-89
2022/07/08 01:07:54;;;;;;;10.77;2.33;;;19.10;67.10;;;19.47;45.92;99751.94;4983571;28;123955;-89
2022/07/08 01:10:21;;;;;;;3.10;1.83;;;19.10;67.30;;;19.44;46.04;99733.81;4985691;28;124131;-89
2022/07/08 01:12:48;;;;;;;4.67;2.20;;;19.10;67.40;;;19.41;45.96;99740.94;4987883;28;119735;-90
2022/07/08 01:15:14;;;;;;;5.87;2.17;;;19.00;67.30;;;19.39;46.04;99734.03;4978769;28;118028;-89
2022/07/08 01:17:43;;;;;;;6.13;2.10;;;19.00;67.30;;;19.36;45.89;99729.94;4979171;28;124280;-89
2022/07/08 01:20:13;;;;;;;10.60;2.20;;;19.00;67.30;;;19.32;46.01;99739.44;4983939;28;124242;-90
2022/07/08 01:22:40;;;;;;;7.60;2.20;;;19.00;67.10;;;19.26;45.78;99738.81;4989344;28;119082;-88
2022/07/08 01:25:07;;;;;;;6.37;2.40;;;18.90;66.80;;;19.22;45.64;99737.06;4979493;28;118929;-90
2022/07/08 01:27:34;;;;;;;3.17;2.10;;;18.90;66.80;;;19.19;45.49;99747.00;4970509;28;123801;-88
2022/07/08 01:30:03;;;;;;;8.00;2.57;;;18.80;66.60;;;19.11;45.38;99736.69;4969983;28;123902;-90
2022/07/08 01:32:32;;;;;;;7.13;2.97;;;18.80;67.00;;;19.02;45.56;99742.41;4982201;28;117470;-89
2022/07/08 01:34:59;;;;;;;5.47;2.00;;;18.70;66.10;;;18.98;45.49;99736.66;4984574;28;118908;-88
2022/07/08 01:37:25;;;;;;;6.20;1.90;;;18.60;66.10;;;18.96;45.40;99744.56;4979871;28;125293;-90
2022/07/08 01:39:52;;;;;;;11.37;2.07;;;18.60;66.00;;;18.92;45.43;99760.44;4994166;28;124550;-89
2022/07/08 01:42:19;;;;;;;4.40;2.00;;;18.60;66.10;;;18.90;45.21;99751.56;4995801;28;119064;-90
2022/07/08 01:44:45;;;;;;;6.50;2.50;;;18.50;65.90;;;18.86;45.41;99761.84;4978435;28;118954;-90
2022/07/08 01:47:12;;;;;;;8.03;2.33;;;18.50;66.00;;;18.83;45.36;99756.91;4981134;28;124600;-89
2022/07/08 01:49:39;;;;;;;7.93;2.43;;;18.40;65.90;;;18.81;45.05;99748.03;4977391;28;122751;-90
2022/07/08 01:52:07;;;;;;;4.83;2.10;;;18.40;65.90;;;18.76;45.34;99757.47;4982952;28;120411;-89
2022/07/08 01:54:34;;;;;;;7.07;2.10;;;18.40;65.90;;;18.72;45.26;99745.28;4965648;28;120382;-90
2022/07/08 01:57:22;;;;;;;5.97;2.07;;;18.30;65.80;;;18.68;45.49;99763.13;4974045;28;123145;-89
2022/07/08 01:59:50;;;;;;;4.00;2.03;;;18.30;65.90;;;18.63;45.47;99755.75;4985441;28;124110;-89
2022/07/08 02:02:19;;;;;;;4.60;2.00;;;18.30;65.90;;;18.61;45.69;99758.06;4985869;28;119381;-89
2022/07/08 02:04:47;;;;;;;7.53;2.20;;;18.20;65.90;;;18.58;45.58;99774.72;4983089;28;119091;-90
2022/07/08 02:07:15;;;;;;;4.33;1.80;;;18.20;65.90;;;18.51;45.60;99773.31;4982054;28;124165;-90
2022/07/08 02:09:42;;;;;;;6.33;1.80;;;18.20;65.90;;;18.46;45.80;99770.72;4986186;28;124021;-89
2022/07/08 02:12:19;;;;;;;6.13;1.90;;;18.10;66.00;;;18.44;46.05;99775.00;4989682;28;119469;-90
2022/07/08 02:14:47;;;;;;;4.03;2.00;;;18.10;66.10;;;18.39;45.82;99778.00;4984265;28;119066;-89
2022/07/08 02:17:16;;;;;;;6.40;2.33;;;18.00;66.20;;;18.36;46.09;99778.69;4974760;28;124926;-90
2022/07/08 02:19:43;;;;;;;5.30;2.20;;;18.00;66.40;;;18.29;46.38;99776.44;4963309;28;123905;-89
2022/07/08 02:22:11;;;;;;;6.33;2.13;;;17.90;66.70;;;18.21;46.57;99778.13;4985619;28;119321;-90
2022/07/08 02:24:37;;;;;;;7.97;2.13;;;17.80;66.80;;;18.18;46.64;99778.81;4985210;28;119116;-92
2022/07/08 02:27:05;;;;;;;7.07;2.47;;;17.80;67.00;;;18.16;46.76;99774.72;4985075;28;124440;-89
2022/07/08 02:29:33;;;;;;;9.10;2.20;;;17.70;67.90;;;18.12;46.70;99779.34;4979005;28;123997;-90
2022/07/08 02:32:00;;;;;;;4.47;2.27;;;17.70;67.30;;;18.05;47.10;99777.94;4981712;28;119578;-90
2022/07/08 02:34:27;;;;;;;5.23;1.90;;;17.70;67.50;;;18.01;47.14;99782.53;4988127;28;118965;-90
2022/07/08 02:36:54;;;;;;;3.20;1.67;;;17.60;67.50;;;17.96;47.18;99777.16;4977297;28;124932;-90
2022/07/08 02:39:21;;;;;;;5.87;1.90;;;17.60;67.70;;;17.95;47.34;99783.09;4995868;28;123061;-90
2022/07/08 02:41:48;;;;;;;5.53;2.13;;;17.60;67.80;;;17.91;47.42;99774.53;4979632;28;120167;-91
2022/07/08 02:44:15;;;;;;;4.33;2.10;;;17.60;68.00;;;17.86;47.56;99781.13;4985035;28;120497;-90
2022/07/08 02:46:42;;;;;;;5.87;2.37;;;17.50;68.00;;;17.82;47.51;99776.56;4983647;28;123759;-91
2022/07/08 02:49:09;;;;;;;7.63;2.50;;;17.50;68.10;;;17.77;47.58;99797.13;4967706;28;124153;-91
2022/07/08 02:51:37;;;;;;;7.93;2.47;;;17.40;68.10;;;17.75;47.78;99809.78;4975678;28;119285;-90
2022/07/08 02:54:04;;;;;;;4.03;2.00;;;17.40;68.30;;;17.72;47.64;99802.06;4983902;28;118986;-90
2022/07/08 02:56:32;;;;;;;11.47;2.60;;;17.40;68.50;;;17.71;47.95;99806.84;4975740;28;124001;-91
2022/07/08 02:59:00;;;;;;;5.70;2.40;;;17.40;68.90;;;17.70;47.80;99807.19;4977194;28;123981;-91
2022/07/08 03:01:26;;;;;;;6.43;2.00;;;17.30;68.80;;;17.68;48.17;99807.53;4974497;28;119643;-90
2022/07/08 03:03:53;;;;;;;6.53;2.00;;;17.30;69.00;;;17.66;48.29;99799.47;4983965;28;118352;-88
2022/07/08 03:06:20;;;;;;;9.60;2.57;;;17.30;69.10;;;17.63;48.31;99811.31;4975748;28;123619;-89
2022/07/08 03:08:47;;;;;;;7.70;1.90;;;17.20;69.10;;;17.60;48.17;99803.59;4984593;28;123855;-90
2022/07/08 03:11:13;;;;;;;5.73;2.17;;;17.20;69.20;;;17.57;48.39;99811.81;4979195;28;119766;-90
2022/07/08 03:13:40;;;;;;;4.53;2.17;;;17.20;69.30;;;17.54;48.45;99818.91;4973556;28;118910;-91
2022/07/08 03:16:07;;;;;;;4.80;1.77;;;17.20;69.50;;;17.54;48.33;99816.09;4977555;28;124242;-89
2022/07/08 03:18:35;;;;;;;6.40;2.40;;;17.20;69.60;;;17.53;48.56;99822.03;4984587;28;123682;-89
2022/07/08 03:21:07;;;;;;;6.93;2.10;;;17.10;70.30;;;17.51;48.42;99830.75;4983521;28;119393;-90
2022/07/08 03:23:34;;;;;;;2.70;1.73;;;17.10;69.70;;;17.51;48.50;99836.34;4988311;28;118965;-90
2022/07/08 03:26:02;;;;;;;4.77;1.70;;;17.10;69.70;;;17.54;48.49;99841.25;4998736;28;124047;-89
2022/07/08 03:28:28;;;;;;;4.37;2.00;;;17.10;69.90;;;17.54;48.33;99840.44;4983360;28;123044;-91
2022/07/08 03:30:55;;;;;;;7.40;2.10;;;17.10;69.90;;;17.55;48.37;99836.50;4974786;28;120403;-92
2022/07/08 03:33:22;;;;;;;7.93;2.90;;;17.10;69.90;;;17.53;48.54;99834.03;4983648;28;120773;-90
2022/07/08 03:35:48;;;;;;;4.60;2.03;;;17.10;69.90;;;17.52;48.72;99837.19;4971564;28;124207;-90
2022/07/08 03:38:16;;;;;;;6.10;2.20;;;17.10;70.00;;;17.50;48.52;99847.84;4980295;28;125049;-90
2022/07/08 03:43:27;;;;;;;4.83;2.43;;;17.10;70.00;;;17.45;48.56;99854.44;4984257;28;119680;-93
2022/07/08 03:45:54;;;;;;;8.40;2.40;;;17.10;70.00;;;17.43;48.57;99856.75;4976425;28;124019;-90
2022/07/08 03:48:20;;;;;;;7.77;1.90;;;17.00;70.00;;;17.42;48.74;99860.69;4969297;28;122959;-90
2022/07/08 03:50:47;;;;;;;7.53;1.77;;;17.00;70.00;;;17.43;48.63;99870.72;4978530;28;119359;-89
2022/07/08 03:53:14;;;;;;;5.13;1.97;;;17.00;70.10;;;17.42;48.67;99874.66;4984510;28;118723;-91
2022/07/08 03:55:40;;;;;;;4.53;1.90;;;17.00;70.10;;;17.44;48.60;99866.78;4981463;28;123778;-90
2022/07/08 03:58:07;;;;;;;3.67;1.77;;;17.00;70.20;;;17.44;48.77;99872.38;4980352;28;125265;-91
2022/07/08 04:00:33;;;;;;;7.60;2.10;;;17.00;70.30;;;17.43;48.64;99876.28;4974689;28;119838;-88
2022/07/08 04:03:00;;;;;;;8.33;2.83;;;17.00;70.20;;;17.38;48.98;99882.91;4979229;28;118205;-90
2022/07/08 04:05:26;;;;;;;8.23;1.90;;;16.90;70.60;;;17.33;49.02;99883.06;4971461;28;124032;-88
2022/07/08 04:07:53;;;;;;;7.37;2.43;;;16.90;70.60;;;17.32;49.00;99886.19;4985543;28;123307;-89
2022/07/08 04:10:19;;;;;;;7.93;2.73;;;16.90;70.60;;;17.37;48.74;99870.06;4984004;28;119333;-90
2022/07/08 04:12:45;;;;;;;3.50;1.60;;;16.90;70.70;;;17.46;48.73;99881.22;4999499;28;117386;-89
2022/07/08 04:15:13;;;;;;;5.63;2.23;;;16.90;70.70;;;17.48;48.76;99869.72;4976964;28;124051;-90
2022/07/08 04:17:40;;;;;;;5.53;2.47;;;17.00;70.60;;;17.50;48.66;99887.78;4983853;28;124623;-90
2022/07/08 04:20:07;;;;;;;7.30;2.50;;;17.00;70.60;;;17.49;48.73;99888.97;4982635;28;120117;-90
2022/07/08 04:22:34;;;;;;;4.50;1.60;;;17.00;70.50;;;17.48;48.87;99881.72;4998312;28;119007;-90
2022/07/08 04:25:00;;;;;;;6.40;2.20;;;17.00;70.50;;;17.49;48.67;99883.38;4983691;28;123876;-90
2022/07/08 04:27:27;;;;;;;4.37;2.03;;;17.00;70.50;;;17.49;48.72;99888.13;4985399;28;123545;-89
2022/07/08 04:29:53;;;;;;;4.83;2.20;;;17.00;70.60;;;17.47;48.90;99882.88;4984703;28;119329;-90
2022/07/08 04:32:20;;;;;;;5.33;2.03;;;17.00;70.70;;;17.46;49.02;99892.38;4981663;28;118876;-90
2022/07/08 04:34:47;;;;;;;6.67;2.27;;;17.00;70.80;;;17.48;48.89;99890.09;4981247;28;124993;-89
2022/07/08 04:37:13;;;;;;;6.47;1.97;;;17.40;71.20;;;17.48;48.81;99886.47;4966672;28;123817;-89
2022/07/08 04:39:40;;;;;;;7.40;1.97;;;17.00;70.70;;;17.47;48.82;99891.25;4967232;28;119712;-89
2022/07/08 04:42:07;;;;;;;4.57;1.73;;;17.00;70.60;;;17.44;48.47;99891.94;4980017;28;118958;-87
2022/07/08 04:44:33;;;;;;;4.77;2.57;;;17.00;70.60;;;17.42;48.78;99885.84;4977858;28;123828;-90
2022/07/08 04:47:00;;;;;;;3.00;2.00;;;17.00;70.70;;;17.42;48.78;99883.03;4983513;28;124026;-90
2022/07/08 04:49:26;;;;;;;7.87;2.23;;;17.00;70.70;;;17.43;48.75;99882.69;4967530;28;119329;-90
2022/07/08 04:51:53;;;;;;;4.13;1.97;;;17.10;70.80;;;17.43;48.73;99881.88;4975744;28;118958;-91
2022/07/08 04:54:19;;;;;;;4.30;1.63;;;17.00;70.70;;;17.43;48.76;99879.09;4983682;28;124019;-90
2022/07/08 04:56:46;;;;;;;5.63;1.97;;;17.00;70.80;;;17.45;48.60;99876.78;4974729;28;123038;-89
2022/07/08 04:59:12;;;;;;;7.17;2.33;;;17.00;70.80;;;17.48;48.81;99887.28;4974509;28;118606;-91
2022/07/08 05:01:38;;;;;;;2.77;1.63;;;17.00;70.80;;;17.50;48.65;99893.38;4978733;28;118558;-90
2022/07/08 05:04:05;;;;;;;4.60;2.10;;;17.00;70.80;;;17.51;48.80;99892.22;4980260;28;124290;-88
2022/07/08 05:06:32;;;;;;;7.73;2.37;;;17.10;70.90;;;17.51;48.59;99892.22;4973358;28;123998;-90
2022/07/08 05:08:58;;;;;;;6.73;1.60;;;17.10;70.80;;;17.52;48.72;99893.06;4982542;28;120449;-90
2022/07/08 05:11:26;;;;;;;4.47;2.00;;;17.00;70.80;;;17.51;48.74;99895.00;4988444;28;119841;-89
2022/07/08 05:13:52;;;;;;;3.33;1.77;;;17.00;70.80;;;17.53;48.85;99892.72;4973389;28;124284;-90
2022/07/08 05:16:19;;;;;;;7.20;2.47;;;17.00;70.80;;;17.54;48.71;99894.34;4971800;28;122921;-89
2022/07/08 05:18:45;;;;;;;5.20;2.00;;;17.10;71.10;;;17.53;48.70;99889.91;4977145;28;119401;-90
2022/07/08 05:21:12;;;;;;;5.17;2.00;;;17.10;71.00;;;17.53;48.59;99886.31;4987783;28;118172;-90
2022/07/08 05:23:38;;;;;;;6.90;2.30;;;17.00;70.80;;;17.55;48.67;99896.00;4985229;28;122818;-90
2022/07/08 05:26:05;;;;;;;5.30;2.20;;;17.10;70.90;;;17.59;48.56;99876.59;4980354;28;123991;-89
2022/07/08 05:28:32;;;;;;;3.20;1.60;;;17.10;70.90;;;17.64;48.46;99884.78;4984185;28;119425;-89
2022/07/08 05:30:59;;;;;;;4.20;2.10;;;17.10;70.90;;;17.66;48.39;99888.91;4998602;28;119705;-93
2022/07/08 05:33:25;;;;;;;6.33;2.10;;;17.10;70.80;;;17.72;48.34;99886.75;4993075;28;123872;-92
2022/07/08 05:35:52;;;;;;;7.00;2.17;;;17.20;71.00;;;17.79;48.33;99881.50;4998691;28;124329;-89
2022/07/08 05:38:18;;;;;;;5.20;2.13;;;17.20;70.80;;;17.84;47.90;99891.69;4973376;28;118654;-90
2022/07/08 05:40:45;;;;;;;5.83;2.13;;;17.20;70.50;;;17.88;47.81;99901.03;4967348;28;118885;-92
2022/07/08 05:43:11;;;;;;;4.93;1.70;;;17.30;70.50;;;17.94;47.77;99894.09;4974320;28;124312;-92
2022/07/08 05:45:37;;;;;;;6.53;1.80;;;17.30;70.40;;;17.98;47.68;99900.66;4986746;28;123531;-91
2022/07/08 05:48:04;;;;;;;5.87;2.20;;;17.40;70.30;;;18.03;47.20;99914.47;4971140;28;119551;-91
2022/07/08 05:50:31;;;;;;;5.60;2.43;;;17.40;69.90;;;18.05;47.29;99916.91;4982949;28;120102;-92
2022/07/08 05:52:57;;;;;;;9.63;2.23;;;17.50;69.70;;;18.07;47.05;99923.81;4981408;28;124024;-92
2022/07/08 05:55:24;;;;;;;5.67;2.10;;;17.50;69.60;;;18.10;46.93;99919.53;4980576;28;123262;-92
2022/07/08 05:57:50;;;;;;;3.40;1.60;;;17.50;69.40;;;18.13;46.89;99912.44;4978108;28;120333;-90
2022/07/08 06:00:19;;;;;;;4.63;1.93;;;17.50;69.30;;;18.19;46.88;99923.13;4970343;28;120019;-92
2022/07/08 06:02:45;;;;;;;5.40;2.00;;;17.60;69.20;;;18.25;46.74;99920.97;4975516;28;124465;-91
2022/07/08 06:05:12;;;;;;;2.70;1.63;;;17.60;69.00;;;18.28;46.69;99925.88;4976371;28;124143;-91
2022/07/08 06:07:39;;;;;;;5.43;1.90;;;17.60;68.90;;;18.33;46.33;99929.31;4970415;28;119333;-90
2022/07/08 06:10:07;;;;;;;5.23;2.27;;;17.70;68.80;;;18.39;46.16;99932.72;4986610;28;119005;-91
2022/07/08 06:12:33;;;;;;;3.90;1.87;;;17.70;68.40;;;18.44;46.22;99935.34;4980122;28;123164;-91
2022/07/08 06:15:00;;;;;;;7.73;2.63;;;17.80;68.60;;;18.51;46.10;99924.44;5003678;28;123879;-93
2022/07/08 06:17:26;;;;;;;5.70;2.20;;;17.80;68.40;;;18.61;46.02;99922.41;4987954;28;118735;-90
2022/07/08 06:19:53;;;;;;;3.10;2.13;;;17.90;69.10;;;18.69;45.79;99935.53;4985129;28;119020;-91
2022/07/08 06:22:19;;;;;;;5.50;1.60;;;18.00;68.10;;;18.71;45.70;99938.81;4941458;28;1181281;-91
2022/07/08 06:24:46;;;;;;;4.27;1.77;;;18.00;67.90;;;18.80;45.74;99930.38;4973744;28;124132;-90
2022/07/08 06:27:12;;;;;;;4.50;1.73;;;18.10;68.20;;;18.91;45.30;99926.84;4980018;28;117567;-88
2022/07/08 06:29:39;;;;;;;4.83;1.77;;;18.20;67.90;;;19.04;45.03;99935.31;4980199;28;119044;-89
2022/07/08 06:32:06;;;;;;;5.63;2.17;;;18.20;68.10;;;19.12;44.70;99931.63;4983237;28;124043;-90
2022/07/08 06:34:32;;;;;;;4.43;1.60;;;18.30;67.20;;;19.20;44.31;99936.31;4985438;28;123716;-92
2022/07/08 06:36:59;;;;;;;3.80;1.77;;;18.40;66.60;;;19.26;44.08;99936.94;4984074;28;119390;-90
2022/07/08 06:39:26;;;;;;;14.00;2.40;;;18.50;66.40;;;19.22;43.98;99945.22;4989212;28;118989;-89
2022/07/08 06:41:52;;;;;;;5.77;2.00;;;18.50;65.70;;;19.18;44.08;99949.84;4989464;28;123917;-90
2022/07/08 06:44:18;;;;;;;7.10;1.90;;;18.50;65.70;;;19.17;43.82;99945.44;4989058;28;123453;-89
2022/07/08 06:46:45;;;;;;;5.07;1.70;;;18.50;65.30;;;19.17;43.51;99940.63;4987093;28;119495;-91
2022/07/08 06:49:12;;;;;;;3.93;1.70;;;19.50;65.90;;;19.15;43.25;99942.94;4976684;28;119859;-90
2022/07/08 06:51:38;;;;;;;7.07;2.30;;;18.60;64.30;;;19.11;43.07;99942.00;4974689;28;123972;-91
2022/07/08 06:56:50;;;;;;;9.17;1.97;;;18.50;64.30;;;19.20;42.98;99951.16;4989731;28;119986;-90
2022/07/08 06:59:16;;;;;;;7.50;2.00;;;18.60;63.80;;;19.20;42.10;99955.94;4980660;28;118990;-91
2022/07/08 07:01:43;;;;;;;8.23;1.30;;;18.60;62.80;;;19.16;42.42;99947.41;4979098;28;124149;-88
2022/07/08 07:04:09;;;;;;;3.90;1.50;;;18.50;62.80;;;19.20;42.62;99955.94;4981493;28;123764;-90
2022/07/08 07:06:36;;;;;;;10.33;2.37;;;18.60;63.10;;;19.25;42.74;99955.75;4976030;28;119293;-92
2022/07/08 07:09:03;;;;;;;6.07;1.70;;;18.60;63.10;;;19.35;42.03;99948.91;4986467;28;119470;-92
2022/07/08 07:11:29;;;;;;;3.73;1.50;;;18.70;62.40;;;19.46;41.34;99960.53;4981972;28;123374;-89
2022/07/08 07:13:56;;;;;;;4.80;1.83;;;18.80;61.60;;;19.59;41.09;99951.00;4980897;28;123267;-90
2022/07/08 07:16:22;;;;;;;2.90;1.60;;;18.90;61.10;;;19.66;40.24;99954.06;4969110;28;119363;-87
2022/07/08 07:18:49;;;;;;;3.53;1.20;;;18.90;60.20;;;19.71;40.62;99951.06;4978266;28;119601;-87
2022/07/08 07:21:16;;;;;;;3.93;1.50;;;19.00;60.60;;;19.82;40.56;99948.63;4981827;28;124121;-88
2022/07/08 07:23:42;;;;;;;6.07;2.00;;;19.10;60.80;;;19.88;40.60;99952.88;4979282;28;124385;-87
2022/07/08 07:26:09;;;;;;;1.70;1.30;;;19.20;60.70;;;19.94;40.22;99961.88;4980025;28;120169;-88
2022/07/08 07:28:35;;;;;;;4.60;1.67;;;19.20;60.20;;;20.01;40.26;99945.28;4980283;28;118333;-87
2022/07/08 07:31:02;;;;;;;4.73;1.50;;;19.30;60.40;;;20.08;40.55;99951.16;4976819;28;124334;-92
2022/07/08 07:33:29;;;;;;;5.90;1.57;;;19.40;61.20;;;20.14;40.48;99952.56;4980905;28;123090;-93
2022/07/08 07:35:56;;;;;;;2.67;1.70;;;19.50;60.40;;;20.19;40.14;99965.56;4987011;28;120119;-92
2022/07/08 07:38:22;;;;;;;6.20;2.27;;;19.50;60.10;;;20.30;39.99;99961.94;4973107;28;120274;-92
2022/07/08 07:40:49;;;;;;;3.37;1.40;;;19.60;59.90;;;20.44;39.38;99964.38;4976343;28;123399;-92
2022/07/08 07:43:15;;;;;;;5.30;1.80;;;19.70;59.00;;;20.48;38.93;99964.53;4986773;28;124002;-92
2022/07/08 07:45:42;;;;;;;4.60;1.60;;;19.70;58.30;;;20.47;38.90;99962.88;4992456;28;119396;-92
2022/07/08 07:48:10;;;;;;;2.33;1.17;;;19.70;58.10;;;20.46;38.72;99961.25;4992910;28;119286;-93
2022/07/08 07:50:37;;;;;;;5.07;1.40;;;19.70;58.10;;;20.43;39.01;99962.75;4976320;28;123637;-93
2022/07/08 07:53:03;;;;;;;5.83;1.60;;;19.80;58.00;;;20.43;38.72;99956.34;4983401;28;122950;-90
2022/07/08 07:55:30;;;;;;;4.77;1.77;;;19.90;57.90;;;20.41;38.55;99967.09;4971214;28;121064;-92
2022/07/08 07:57:56;;;;;;;2.60;1.83;;;19.80;57.30;;;20.38;38.44;99964.97;4968722;28;118894;-89
2022/07/08 08:00:23;;;;;;;5.67;1.60;;;19.80;57.40;;;20.37;38.81;99957.75;4973181;28;123933;-88
2022/07/08 08:02:51;;;;;;;4.60;1.80;;;19.80;57.50;;;20.38;38.96;99964.97;4968989;28;123262;-88
2022/07/08 08:05:18;;;;;;;3.67;1.73;;;19.90;57.50;;;20.34;38.78;99964.88;4972635;28;119442;-86
2022/07/08 08:07:45;;;;;;;3.40;1.57;;;19.80;57.20;;;20.32;38.54;99966.38;4977613;28;119104;-87
2022/07/08 08:10:13;;;;;;;3.60;1.60;;;19.80;56.90;;;20.26;38.30;99977.84;4971166;28;123786;-90
2022/07/08 08:12:40;;;;;;;4.07;1.67;;;19.80;56.60;;;20.20;38.42;99968.03;4971437;28;123824;-91
2022/07/08 08:15:08;;;;;;;7.43;1.57;;;19.80;56.50;;;20.16;38.22;99969.06;4973083;28;119277;-89
2022/07/08 08:17:39;;;;;;;3.50;1.70;;;19.70;56.40;;;20.13;38.06;99970.56;4978516;28;118726;-88
2022/07/08 08:20:09;;;;;;;6.30;1.63;;;19.70;56.20;;;20.08;38.23;99966.00;4967264;28;123906;-88
2022/07/08 08:22:36;;;;;;;4.80;1.40;;;19.70;56.10;;;20.07;38.10;99978.41;4972810;28;124073;-89
2022/07/08 08:25:03;;;;;;;4.60;1.73;;;19.60;55.90;;;20.07;38.20;99966.34;4960617;28;119168;-87
2022/07/08 08:27:30;;;;;;;4.40;1.30;;;19.60;56.10;;;20.07;38.33;99969.97;4971240;28;119442;-85
2022/07/08 08:29:56;;;;;;;3.17;1.80;;;19.60;56.00;;;20.04;37.80;99972.63;4979354;28;123323;-88
2022/07/08 08:32:23;;;;;;;2.87;1.70;;;19.50;55.40;;;19.94;37.80;99970.31;4971535;28;124325;-88
2022/07/08 08:34:49;;;;;;;3.97;1.73;;;19.50;55.20;;;19.93;38.00;99971.44;4972732;28;120223;-88
2022/07/08 08:37:16;;;;;;;10.10;2.07;;;19.40;55.60;;;19.95;37.83;99966.31;4969110;28;118673;-89
2022/07/08 08:39:42;;;;;;;4.20;2.20;;;19.40;55.90;;;19.99;38.08;99964.47;4972493;28;124286;-89
2022/07/08 08:42:09;;;;;;;6.07;2.10;;;19.40;55.80;;;20.07;38.09;99955.94;4970597;28;123763;-88
2022/07/08 08:44:36;;;;;;;5.50;2.23;;;19.50;56.20;;;20.12;37.79;99962.50;4975727;28;118607;-88
2022/07/08 08:47:04;;;;;;;3.97;1.60;;;19.50;55.40;;;20.12;37.83;99962.50;4971438;28;119402;-89
2022/07/08 08:49:34;;;;;;;3.03;1.33;;;19.50;55.70;;;20.15;38.08;99961.78;4977126;28;124029;-89
2022/07/08 08:52:23;;;;;;;8.90;2.43;;;19.60;56.00;;;20.15;37.63;99957.03;4971525;28;123982;-89
2022/07/08 08:54:51;;;;;;;4.30;1.60;;;19.60;55.20;;;20.12;37.80;99956.88;4958523;28;120101;-87
2022/07/08 08:57:20;;;;;;;9.83;1.50;;;19.60;55.30;;;20.12;37.95;99951.25;4973052;28;119110;-87
2022/07/08 08:59:46;;;;;;;3.40;1.33;;;19.60;55.60;;;20.22;37.91;99962.84;4963243;28;123564;-86
2022/07/08 09:02:13;;;;;;;3.00;1.40;;;19.70;55.80;;;20.41;37.93;99967.91;4952240;28;124038;-89
2022/07/08 09:04:41;;;;;;;2.60;1.23;;;19.70;55.90;;;20.56;37.61;99960.81;4946437;28;119180;-93
2022/07/08 09:07:08;;;;;;;2.37;1.30;;;19.90;55.40;;;20.65;37.06;99957.88;4964201;28;118385;-89
2022/07/08 09:09:34;;;;;;;2.67;1.33;;;19.90;55.20;;;20.67;36.94;99950.75;4961628;28;124060;-92
2022/07/08 09:12:18;;;;;;;3.40;1.70;;;20.00;54.90;;;20.67;36.86;99953.56;4970735;28;122942;-88
2022/07/08 09:14:50;;;;;;;3.13;1.40;;;20.10;54.90;;;20.64;36.82;99951.44;4962859;28;121244;-92
2022/07/08 09:17:17;;;;;;;2.60;1.13;;;20.00;54.50;;;20.62;37.23;99941.75;4950030;28;118130;-89
2022/07/08 09:19:48;;;;;;;6.73;1.77;;;20.10;54.70;;;20.59;37.13;99942.44;4957007;28;123348;-92
2022/07/08 09:22:15;;;;;;;3.40;1.60;;;20.10;54.50;;;20.57;37.25;99939.97;4961855;28;124244;-90
2022/07/08 09:24:43;;;;;;;7.57;1.77;;;20.10;54.30;;;20.57;36.86;99939.97;4960341;28;119293;-89
2022/07/08 09:27:11;;;;;;;3.77;1.53;;;20.10;54.30;;;20.59;37.11;99948.88;4943432;28;118867;-90
2022/07/08 09:29:58;;;;;;;3.43;1.50;;;20.10;54.30;;;20.54;36.85;99946.31;4959414;28;124149;-89
2022/07/08 09:32:25;;;;;;;3.70;1.40;;;20.10;54.10;;;20.57;37.02;99948.41;4971784;28;124035;-89
2022/07/08 09:34:51;;;;;;;3.80;1.93;;;20.10;54.50;;;20.63;37.07;99940.56;4973466;28;119795;-89
2022/07/08 09:37:20;;;;;;;4.80;1.60;;;20.10;54.50;;;20.71;37.09;99946.06;4974863;28;118138;-89
2022/07/08 09:39:48;;;;;;;9.60;1.67;;;20.10;54.80;;;20.79;36.81;99944.28;4969449;28;123854;-89
2022/07/08 09:42:15;;;;;;;5.50;1.30;;;21.30;55.40;;;20.85;37.02;99931.66;4969545;28;123851;-92
2022/07/08 09:44:50;;;;;;;3.77;1.60;;;20.20;54.40;;;20.90;36.62;99955.84;4975544;28;119844;-92
2022/07/08 09:47:18;;;;;;;6.83;1.87;;;20.30;54.20;;;20.94;36.65;99942.75;4977893;28;119297;-89
2022/07/08 09:49:47;;;;;;;3.33;1.60;;;20.30;54.10;;;20.92;36.60;99950.72;4972309;28;124666;-85
2022/07/08 09:52:23;;;;;;;4.83;1.87;;;20.40;53.70;;;20.96;36.38;99941.22;4968646;28;124216;-88
2022/07/08 09:55:04;;;;;;;2.70;1.50;;;20.40;53.90;;;21.01;36.35;99937.34;4966155;28;119987;-88
2022/07/08 09:57:31;;;;;;;2.60;1.50;;;20.40;53.70;;;21.09;36.51;99944.00;4976778;28;119546;-89
2022/07/08 09:59:58;;;;;;;4.03;1.70;;;20.50;53.90;;;21.08;35.87;99960.03;4969804;28;124252;-89
2022/07/08 10:02:27;;;;;;;3.23;1.30;;;20.40;52.70;;;21.06;35.78;99951.13;4973350;28;123961;-88
2022/07/08 10:04:55;;;;;;;2.20;1.40;;;20.40;53.20;;;21.06;36.31;99947.50;4968563;28;121664;-88
2022/07/08 10:07:22;;;;;;;3.67;1.50;;;20.40;53.30;;;21.03;36.57;99942.59;4979780;28;119804;-91
2022/07/08 10:09:48;;;;;;;10.67;1.83;;;20.40;53.40;;;21.04;35.95;99950.69;4970953;28;124219;-92
2022/07/08 10:12:16;;;;;;;6.70;1.90;;;20.50;53.30;;;21.04;35.96;99947.88;4972885;28;123908;-90
2022/07/08 10:14:46;;;;;;;2.43;1.50;;;20.40;52.80;;;21.08;36.58;99947.97;4978032;28;119343;-90
2022/07/08 10:17:18;;;;;;;3.47;1.60;;;20.50;53.50;;;21.12;35.92;99944.13;4972568;28;119435;-90
2022/07/08 10:19:46;;;;;;;3.63;2.00;;;20.50;53.00;;;21.18;36.14;99948.31;4968583;28;124062;-89